San Benjamino — HBLW — position and weather

sailwx.info

Track history (hours):
 
Tides and Currents Weather Stations Pressure Air Temp Water Temp Dewpoint Dewpoint Depression Visibility Wind Speed Wind Dir Waves Ship Positions

San Benjamino

Last reported at 2017-Oct-23 01:10 UTC. Time now 2017-Nov-19 01:24 UTC.
Position N 37°15' E 025°52'.
Warning: this ship's position is 27 days out of date.

Length 190 m; draft 12.7 m.

Type: Cargo ship. MMSI: 269095000.

Date/timePositionNaut miles runAvg speedWind from/ knotsBaromVisibWave heightAir tempDewpointWater temp
2017-Oct-23 01:10N 37°15' E 025°52'213.5
2017-Oct-23 01:00N 37°17' E 025°51'713.8
2017-Oct-23 00:30N 37°24' E 025°49'713.4
2017-Oct-22 23:59N 37°31' E 025°46'613.3
2017-Oct-22 23:30N 37°37' E 025°44'713.3
2017-Oct-22 23:00N 37°43' E 025°41'713.1
2017-Oct-22 22:30N 37°49' E 025°39'11412.3
2017-Oct-22 13:12N 39°44' E 025°40'413.7
2017-Oct-22 12:53N 39°47' E 025°44'513.5
2017-Oct-22 12:30N 39°51' E 025°48'713.4
2017-Oct-22 12:00N 39°56' E 025°54'13311.9
2017-Oct-22 00:46N 40°52' E 028°33'311.8
2017-Oct-22 00:30N 40°53' E 028°37'15 2.8
2017-Oct-21 19:17N 40°57' E 028°55'0 0.0
2017-Oct-21 18:59N 40°57' E 028°55'0 0.1
2017-Oct-21 17:44N 40°57' E 028°55'0 1.4
2017-Oct-21 17:24N 40°57' E 028°56'2 3.3
2017-Oct-21 16:56N 40°58' E 028°57'26 1.8
2017-Oct-21 02:47N 41°23' E 029°07'0 0.1
2017-Oct-21 02:30N 41°23' E 029°07'0 0.1
2017-Oct-21 02:00N 41°23' E 029°07'0 0.1
2017-Oct-21 01:30N 41°23' E 029°07'0 0.1
2017-Oct-21 01:00N 41°23' E 029°07'0 0.1
2017-Oct-21 00:30N 41°23' E 029°07'0 0.1
2017-Oct-21 00:00N 41°23' E 029°07'0 0.1
2017-Oct-20 23:31N 41°23' E 029°07'0 0.1
2017-Oct-20 21:01N 41°23' E 029°07'0 0.2
2017-Oct-20 20:40N 41°23' E 029°07'0 0.2
2017-Oct-20 20:29N 41°23' E 029°07'0 0.2
2017-Oct-20 20:00N 41°23' E 029°07'0 0.2
2017-Oct-20 19:18N 41°23' E 029°07'0 0.2
2017-Oct-20 19:00N 41°23' E 029°07'0 0.2
2017-Oct-20 18:30N 41°22' E 029°07'0 0.2
2017-Oct-20 18:00N 41°22' E 029°07'0 0.3
2017-Oct-20 17:30N 41°22' E 029°08'0 0.3
2017-Oct-20 17:00N 41°22' E 029°08'0 0.3
2017-Oct-20 16:30N 41°22' E 029°08'0 0.3
2017-Oct-20 16:00N 41°22' E 029°08'0 0.3
2017-Oct-20 15:30N 41°22' E 029°08'0 0.3
2017-Oct-20 15:00N 41°22' E 029°08'0 0.4
2017-Oct-20 14:01N 41°23' E 029°09'0 0.5
2017-Oct-20 13:30N 41°23' E 029°09'0 0.5
2017-Oct-20 13:00N 41°23' E 029°09'0 0.5
2017-Oct-20 12:31N 41°23' E 029°09'0 0.5
2017-Oct-20 12:00N 41°24' E 029°09'0 0.5
2017-Oct-20 11:31N 41°24' E 029°08'0 0.5
2017-Oct-20 11:00N 41°24' E 029°08'0 0.4
2017-Oct-20 10:30N 41°24' E 029°08'0 0.3
2017-Oct-20 10:01N 41°24' E 029°08'0 0.3
2017-Oct-20 09:30N 41°24' E 029°08'0 0.3
2017-Oct-20 09:00N 41°25' E 029°08'0 0.3
2017-Oct-20 08:30N 41°25' E 029°08'0 0.3
2017-Oct-20 08:00N 41°25' E 029°08'0 0.2
2017-Oct-20 07:30N 41°25' E 029°08'0 0.2
2017-Oct-20 07:00N 41°25' E 029°07'0 0.3
2017-Oct-20 06:30N 41°25' E 029°07'0 0.3
2017-Oct-20 05:59N 41°25' E 029°07'0 0.4
2017-Oct-20 05:30N 41°25' E 029°07'0 0.5
2017-Oct-20 05:00N 41°26' E 029°07'0 0.6
2017-Oct-20 04:31N 41°26' E 029°07'0 0.5
2017-Oct-20 04:00N 41°26' E 029°06'1 1.0
2017-Oct-20 03:30N 41°26' E 029°07'3 6.0
2017-Oct-20 03:00N 41°28' E 029°10'612.3
2017-Oct-20 02:30N 41°34' E 029°13'713.9
2017-Oct-20 02:00N 41°40' E 029°16'713.9
2017-Oct-20 01:30N 41°47' E 029°18'713.9
2017-Oct-20 01:00N 41°53' E 029°21'714.1
2017-Oct-20 00:30N 42°00' E 029°24'714.0
2017-Oct-20 00:00N 42°07' E 029°27'713.9
2017-Oct-19 23:30N 42°14' E 029°29'713.7
2017-Oct-19 23:00N 42°20' E 029°32'713.7
2017-Oct-19 22:30N 42°27' E 029°35'713.7
2017-Oct-19 22:00N 42°33' E 029°37'713.9
2017-Oct-19 21:30N 42°40' E 029°38'713.7
2017-Oct-19 21:00N 42°47' E 029°41'713.7
2017-Oct-19 20:30N 42°53' E 029°44'713.6
2017-Oct-19 20:00N 42°60' E 029°47'713.5
2017-Oct-19 19:30N 43°06' E 029°50'713.7
2017-Oct-19 18:59N 43°13' E 029°53'813.9
2017-Oct-19 18:26N 43°20' E 029°56'614.0
2017-Oct-19 18:00N 43°26' E 029°59'714.1
2017-Oct-19 17:30N 43°33' E 030°01'714.0
2017-Oct-19 17:00N 43°40' E 030°04'714.0
2017-Oct-19 16:30N 43°46' E 030°07'714.0
2017-Oct-19 16:00N 43°53' E 030°10'714.0
2017-Oct-19 15:30N 43°60' E 030°12'713.9
2017-Oct-19 15:00N 44°06' E 030°15'713.8
2017-Oct-19 14:30N 44°13' E 030°18'713.7
2017-Oct-19 14:00N 44°20' E 030°21'713.7
2017-Oct-19 13:30N 44°26' E 030°24'713.7
2017-Oct-19 13:00N 44°33' E 030°26'713.6
2017-Oct-19 12:30N 44°39' E 030°29'713.7
2017-Oct-19 12:00N 44°46' E 030°32'713.4
2017-Oct-19 11:30N 44°52' E 030°34'713.6
2017-Oct-19 11:00N 44°59' E 030°37'713.5
2017-Oct-19 10:30N 45°05' E 030°39'713.4
2017-Oct-19 10:00N 45°12' E 030°42'713.2
2017-Oct-19 09:30N 45°18' E 030°45'713.4
2017-Oct-19 09:00N 45°24' E 030°48'713.2
2017-Oct-19 08:30N 45°31' E 030°51'713.1
2017-Oct-19 08:00N 45°37' E 030°53'713.4
2017-Oct-19 07:30N 45°43' E 030°56'713.3
2017-Oct-19 07:00N 45°50' E 030°59'713.4
2017-Oct-19 06:30N 45°56' E 031°01'713.4
2017-Oct-19 06:00N 46°03' E 031°03'611.5
2017-Oct-19 05:30N 46°08' E 031°03'713.2
2017-Oct-19 05:00N 46°13' E 030°56'612.4
2017-Oct-19 04:30N 46°19' E 030°52'713.0
2017-Oct-19 04:00N 46°25' E 030°50'4 8.4
2017-Oct-19 03:30N 46°29' E 030°53'0 0.4
2017-Oct-19 02:56N 46°29' E 030°53'0 0.0
2017-Oct-19 02:29N 46°29' E 030°53'0 0.0
2017-Oct-19 01:53N 46°29' E 030°53'0 0.0
2017-Oct-19 01:29N 46°29' E 030°53'0 0.0
2017-Oct-19 00:59N 46°29' E 030°53'0 0.0
2017-Oct-19 00:29N 46°29' E 030°53'0 0.0
2017-Oct-18 23:59N 46°29' E 030°53'0 0.0
2017-Oct-18 23:23N 46°29' E 030°53'0 0.0
2017-Oct-18 22:59N 46°29' E 030°53'0 0.0
2017-Oct-18 21:41N 46°29' E 030°53'0 0.0
2017-Oct-18 21:29N 46°29' E 030°53'0 0.0
2017-Oct-18 20:59N 46°29' E 030°53'0 0.0
2017-Oct-18 19:53N 46°29' E 030°53'0 0.0
2017-Oct-18 19:11N 46°29' E 030°53'0 0.0
2017-Oct-18 18:35N 46°29' E 030°53'0 0.0
2017-Oct-18 18:29N 46°29' E 030°53'0 0.0
2017-Oct-18 17:35N 46°29' E 030°53'0 0.1
2017-Oct-18 17:29N 46°29' E 030°53'0 0.0
2017-Oct-18 16:56N 46°29' E 030°53'0 0.0
2017-Oct-18 16:23N 46°29' E 030°53'0 0.0
2017-Oct-18 15:50N 46°29' E 030°53'0 0.0
2017-Oct-18 15:23N 46°29' E 030°53'0 0.0
2017-Oct-18 14:59N 46°29' E 030°53'0 0.0
2017-Oct-18 13:50N 46°29' E 030°53'0 0.0
2017-Oct-18 13:23N 46°29' E 030°53'0 0.0
2017-Oct-18 12:56N 46°29' E 030°53'0 0.0
2017-Oct-18 12:29N 46°29' E 030°53'0 0.0
2017-Oct-18 11:56N 46°29' E 030°53'0 0.0
2017-Oct-18 10:50N 46°29' E 030°53'0 0.0
2017-Oct-18 10:11N 46°29' E 030°53'0 0.0
2017-Oct-18 09:56N 46°29' E 030°53'0 0.0
2017-Oct-18 09:17N 46°29' E 030°53'0 0.0
2017-Oct-18 08:59N 46°29' E 030°53'0 0.0
2017-Oct-18 08:26N 46°29' E 030°53'0 0.0
2017-Oct-18 07:53N 46°29' E 030°53'0 0.0
2017-Oct-18 07:14N 46°29' E 030°53'0 0.0
2017-Oct-18 06:56N 46°29' E 030°53'0 0.0
2017-Oct-18 06:29N 46°29' E 030°53'0 0.0
2017-Oct-18 05:50N 46°29' E 030°53'0 0.0
2017-Oct-18 04:44N 46°29' E 030°53'0 0.0
2017-Oct-18 04:11N 46°29' E 030°53'0 0.1
2017-Oct-18 03:59N 46°29' E 030°53'0 0.1
2017-Oct-18 03:26N 46°29' E 030°53'0 0.0
2017-Oct-18 02:56N 46°29' E 030°53'0 0.0
2017-Oct-18 02:29N 46°29' E 030°53'0 0.0
2017-Oct-18 01:59N 46°29' E 030°53'0 0.0
2017-Oct-18 01:17N 46°29' E 030°53'0 0.0
2017-Oct-18 00:26N 46°29' E 030°53'0 0.0
2017-Oct-17 23:56N 46°29' E 030°53'0 0.0
2017-Oct-17 23:29N 46°29' E 030°53'0 0.0
2017-Oct-17 22:32N 46°29' E 030°53'0 0.0
2017-Oct-17 22:17N 46°29' E 030°53'0 0.0
2017-Oct-17 21:50N 46°29' E 030°53'0 0.0
2017-Oct-17 21:26N 46°29' E 030°53'0 0.2
2017-Oct-17 20:56N 46°29' E 030°53'0 0.2
2017-Oct-17 20:29N 46°29' E 030°53'0 0.1
2017-Oct-17 19:41N 46°29' E 030°53'0 0.1
2017-Oct-17 19:23N 46°29' E 030°53'0 0.1
2017-Oct-17 18:47N 46°29' E 030°53'0 0.0
2017-Oct-17 18:29N 46°29' E 030°53'0 0.0
2017-Oct-17 17:59N 46°29' E 030°53'0 0.0
2017-Oct-17 17:26N 46°29' E 030°53'0 0.0
2017-Oct-17 15:44N 46°29' E 030°53'0 0.0
2017-Oct-17 15:11N 46°29' E 030°53'0 0.0
2017-Oct-17 14:53N 46°29' E 030°53'0 0.0
2017-Oct-17 14:26N 46°29' E 030°53'0 0.0
2017-Oct-17 13:56N 46°29' E 030°53'0 0.1
2017-Oct-17 13:26N 46°29' E 030°53'0 0.0
2017-Oct-17 12:59N 46°29' E 030°53'0 0.0
2017-Oct-17 12:29N 46°29' E 030°53'0 0.0
2017-Oct-17 11:44N 46°29' E 030°53'0 0.0
2017-Oct-17 11:26N 46°29' E 030°53'0 0.0
2017-Oct-17 10:35N 46°29' E 030°53'0 0.1
2017-Oct-17 10:29N 46°29' E 030°53'0 0.0
2017-Oct-17 09:56N 46°29' E 030°53'0 0.0
2017-Oct-17 09:17N 46°29' E 030°53'0 0.0
2017-Oct-17 08:56N 46°29' E 030°53'0 0.0
2017-Oct-17 08:23N 46°29' E 030°53'0 0.1
2017-Oct-17 07:56N 46°29' E 030°53'0 0.0
2017-Oct-17 07:29N 46°29' E 030°53'0 0.1
2017-Oct-17 06:59N 46°29' E 030°53'0 0.0
2017-Oct-17 06:29N 46°29' E 030°53'0 0.0
2017-Oct-17 05:53N 46°29' E 030°53'0 0.0
2017-Oct-17 05:29N 46°29' E 030°53'0 0.0
2017-Oct-17 04:59N 46°29' E 030°53'0 0.0
2017-Oct-17 04:26N 46°29' E 030°53'0 0.0
2017-Oct-17 03:56N 46°29' E 030°53'0 0.0
2017-Oct-17 03:14N 46°29' E 030°53'0 0.0
2017-Oct-17 02:53N 46°29' E 030°53'0 0.0
2017-Oct-17 02:29N 46°29' E 030°53'0 0.0
2017-Oct-17 01:53N 46°29' E 030°53'0 0.0
2017-Oct-17 01:29N 46°29' E 030°53'0 0.0
2017-Oct-17 00:47N 46°29' E 030°53'0 0.0
2017-Oct-17 00:05N 46°29' E 030°53'0 0.0
2017-Oct-16 23:35N 46°29' E 030°53'0 0.1
2017-Oct-16 23:29N 46°29' E 030°53'0 0.0
2017-Oct-16 22:59N 46°29' E 030°53'0 0.0
2017-Oct-16 22:23N 46°29' E 030°53'0 0.0
2017-Oct-16 21:53N 46°29' E 030°53'0 0.0
2017-Oct-16 21:29N 46°29' E 030°53'0 0.0
2017-Oct-16 20:17N 46°29' E 030°53'0 0.0
2017-Oct-16 19:47N 46°29' E 030°53'0 0.0
2017-Oct-16 19:20N 46°29' E 030°53'0 0.0
2017-Oct-16 18:59N 46°29' E 030°53'0 0.0
2017-Oct-16 18:29N 46°29' E 030°53'0 0.0
2017-Oct-16 17:50N 46°29' E 030°53'0 0.0
2017-Oct-16 16:50N 46°29' E 030°53'0 0.0
2017-Oct-16 16:23N 46°29' E 030°53'0 0.0
2017-Oct-16 15:53N 46°29' E 030°53'0 0.0
2017-Oct-16 15:26N 46°29' E 030°53'0 0.0
2017-Oct-16 14:32N 46°29' E 030°53'0 0.0
2017-Oct-16 13:47N 46°29' E 030°53'0 0.1
2017-Oct-16 13:20N 46°29' E 030°53'0 0.0
2017-Oct-16 12:56N 46°29' E 030°53'0 0.0
2017-Oct-16 12:23N 46°29' E 030°53'0 0.0
2017-Oct-16 11:56N 46°29' E 030°53'0 0.0
2017-Oct-16 11:29N 46°29' E 030°53'0 0.0
2017-Oct-16 10:53N 46°29' E 030°53'0 0.0
2017-Oct-16 10:29N 46°29' E 030°53'0 0.0
2017-Oct-16 09:56N 46°29' E 030°53'0 0.0
2017-Oct-16 09:26N 46°29' E 030°53'0 0.3
2017-Oct-16 08:56N 46°29' E 030°53'1 1.9
2017-Oct-16 08:30N 46°29' E 030°52'3 5.8
2017-Oct-16 08:00N 46°30' E 030°48'3 5.2
2017-Oct-16 07:30N 46°30' E 030°44'0 0.3
2017-Oct-16 06:58N 46°30' E 030°44'0 0.0
2017-Oct-16 06:25N 46°30' E 030°44'0 0.0
2017-Oct-16 05:46N 46°30' E 030°44'0 0.0
2017-Oct-16 05:28N 46°30' E 030°44'0 0.0
2017-Oct-16 04:49N 46°30' E 030°44'0 0.0
2017-Oct-16 04:28N 46°30' E 030°44'0 0.0
2017-Oct-16 03:58N 46°30' E 030°44'0 0.0
2017-Oct-16 03:28N 46°30' E 030°44'0 0.0
2017-Oct-16 02:52N 46°30' E 030°44'0 0.0
2017-Oct-16 02:28N 46°30' E 030°44'0 0.0
2017-Oct-16 01:58N 46°30' E 030°44'0 0.0
2017-Oct-16 01:28N 46°30' E 030°44'0 0.0
2017-Oct-16 00:52N 46°30' E 030°44'0 0.0
2017-Oct-16 00:10N 46°30' E 030°44'0 0.0
2017-Oct-15 23:58N 46°30' E 030°44'0 0.0
2017-Oct-15 23:16N 46°30' E 030°44'0 0.0
2017-Oct-15 22:58N 46°30' E 030°44'0 0.0
2017-Oct-15 22:19N 46°30' E 030°44'0 0.0
2017-Oct-15 21:52N 46°30' E 030°44'0 0.0
2017-Oct-15 21:28N 46°30' E 030°44'0 0.0
2017-Oct-15 20:58N 46°30' E 030°44'0 0.0
2017-Oct-15 20:28N 46°30' E 030°44'0 0.0
2017-Oct-15 19:58N 46°30' E 030°44'0 0.0
2017-Oct-15 19:22N 46°30' E 030°44'0 0.0
2017-Oct-15 18:58N 46°30' E 030°44'0 0.0
2017-Oct-15 18:28N 46°30' E 030°44'0 0.0
2017-Oct-15 17:58N 46°30' E 030°44'0 0.0
2017-Oct-15 17:28N 46°30' E 030°44'0 0.0
2017-Oct-15 16:55N 46°30' E 030°44'0 0.0
2017-Oct-15 16:28N 46°30' E 030°44'0 0.0
2017-Oct-15 15:25N 46°30' E 030°44'0 0.0
2017-Oct-15 14:58N 46°30' E 030°44'0 0.0
2017-Oct-15 13:28N 46°30' E 030°44'0 0.0
2017-Oct-15 12:55N 46°30' E 030°44'0 0.0
2017-Oct-15 12:25N 46°30' E 030°44'0 0.0
2017-Oct-15 11:55N 46°30' E 030°44'0 0.0
2017-Oct-15 11:28N 46°30' E 030°44'0 0.0
2017-Oct-15 10:58N 46°30' E 030°44'0 0.0
2017-Oct-15 10:28N 46°30' E 030°44'0 0.0
2017-Oct-15 09:58N 46°30' E 030°44'0 0.0
2017-Oct-15 09:16N 46°30' E 030°44'0 0.0
2017-Oct-15 08:52N 46°30' E 030°44'0 0.0
2017-Oct-15 08:28N 46°30' E 030°44'0 0.0
2017-Oct-15 07:58N 46°30' E 030°44'0 0.0
2017-Oct-15 07:22N 46°30' E 030°44'0 0.0
2017-Oct-15 06:58N 46°30' E 030°44'0 0.0
2017-Oct-15 06:28N 46°30' E 030°44'0 0.0
2017-Oct-15 05:55N 46°30' E 030°44'0 0.0
2017-Oct-15 05:25N 46°30' E 030°44'0 0.0
2017-Oct-15 04:52N 46°30' E 030°44'0 0.0
2017-Oct-15 04:19N 46°30' E 030°44'0 0.0
2017-Oct-15 03:58N 46°30' E 030°44'0 0.0
2017-Oct-15 03:25N 46°30' E 030°44'0 0.0
2017-Oct-15 02:58N 46°30' E 030°44'0 0.0
2017-Oct-15 02:28N 46°30' E 030°44'0 0.0
2017-Oct-15 01:58N 46°30' E 030°44'0 0.0
2017-Oct-15 01:28N 46°30' E 030°44'0 0.0
2017-Oct-15 00:58N 46°30' E 030°44'0 0.0
2017-Oct-15 00:28N 46°30' E 030°44'0 0.0
2017-Oct-14 23:55N 46°30' E 030°44'0 0.0
2017-Oct-14 23:28N 46°30' E 030°44'0 0.0
2017-Oct-14 22:58N 46°30' E 030°44'0 0.0
2017-Oct-14 22:28N 46°30' E 030°44'0 0.0
2017-Oct-14 21:58N 46°30' E 030°44'0 0.0
2017-Oct-14 21:25N 46°30' E 030°44'0 0.0
2017-Oct-14 20:52N 46°30' E 030°44'0 0.0
2017-Oct-14 20:28N 46°30' E 030°44'0 0.0
2017-Oct-14 19:52N 46°30' E 030°44'0 0.0
2017-Oct-14 19:16N 46°30' E 030°44'0 0.0
2017-Oct-14 18:58N 46°30' E 030°44'0 0.0
2017-Oct-14 18:22N 46°30' E 030°44'0 0.0
2017-Oct-14 17:55N 46°30' E 030°44'0 0.0
2017-Oct-14 17:25N 46°30' E 030°44'0 0.0
2017-Oct-14 16:55N 46°30' E 030°44'0 0.0
2017-Oct-14 16:25N 46°30' E 030°44'0 0.0
2017-Oct-14 15:58N 46°30' E 030°44'0 0.0
2017-Oct-14 15:28N 46°30' E 030°44'0 0.0
2017-Oct-14 14:58N 46°30' E 030°44'0 0.0
2017-Oct-14 14:25N 46°30' E 030°44'0 0.0
2017-Oct-14 13:58N 46°30' E 030°44'0 0.0
2017-Oct-14 13:22N 46°30' E 030°44'0 0.0
2017-Oct-14 12:58N 46°30' E 030°44'0 0.0
2017-Oct-14 12:25N 46°30' E 030°44'0 0.0
2017-Oct-14 11:55N 46°30' E 030°44'0 0.0
2017-Oct-14 11:25N 46°30' E 030°44'0 0.0
2017-Oct-14 10:58N 46°30' E 030°44'0 0.0
2017-Oct-14 10:28N 46°30' E 030°44'0 0.0
2017-Oct-14 09:49N 46°30' E 030°44'0 0.0
2017-Oct-14 09:25N 46°30' E 030°44'0 0.0
2017-Oct-14 08:52N 46°30' E 030°44'0 0.0
2017-Oct-14 08:25N 46°30' E 030°44'0 0.0
2017-Oct-14 07:58N 46°30' E 030°44'0 0.0
2017-Oct-14 07:25N 46°30' E 030°44'0 0.0
2017-Oct-14 06:58N 46°30' E 030°44'0 0.0
2017-Oct-14 06:28N 46°30' E 030°44'0 0.0
2017-Oct-14 05:58N 46°30' E 030°44'0 0.0
2017-Oct-14 05:28N 46°30' E 030°44'0 0.0
2017-Oct-14 04:58N 46°30' E 030°44'0 0.0
2017-Oct-14 03:58N 46°30' E 030°44'0 0.0
2017-Oct-14 03:25N 46°30' E 030°44'0 0.0
2017-Oct-14 02:52N 46°30' E 030°44'0 0.0
2017-Oct-14 02:28N 46°30' E 030°44'0 0.0
2017-Oct-14 01:58N 46°30' E 030°44'0 0.0
2017-Oct-14 01:28N 46°30' E 030°44'0 0.0
2017-Oct-14 00:58N 46°30' E 030°44'0 0.0
2017-Oct-14 00:28N 46°30' E 030°44'0 0.0
2017-Oct-13 23:55N 46°30' E 030°44'0 0.0
2017-Oct-13 23:19N 46°30' E 030°44'0 0.0
2017-Oct-13 22:58N 46°30' E 030°44'0 0.0
2017-Oct-13 22:25N 46°30' E 030°44'0 0.0
2017-Oct-13 21:58N 46°30' E 030°44'0 0.0
2017-Oct-13 21:28N 46°30' E 030°44'0 0.0
2017-Oct-13 20:58N 46°30' E 030°44'0 0.0
2017-Oct-13 20:28N 46°30' E 030°44'0 0.0
2017-Oct-13 19:55N 46°30' E 030°44'0 0.0
2017-Oct-13 19:28N 46°30' E 030°44'0 0.0
2017-Oct-13 18:55N 46°30' E 030°44'0 0.0
2017-Oct-13 18:25N 46°30' E 030°44'0 0.0
2017-Oct-13 17:58N 46°30' E 030°44'0 0.0
2017-Oct-13 17:28N 46°30' E 030°44'0 0.0
2017-Oct-13 16:55N 46°30' E 030°44'0 0.0
2017-Oct-13 16:16N 46°30' E 030°44'0 0.0
2017-Oct-13 15:55N 46°30' E 030°44'0 0.0
2017-Oct-13 15:28N 46°30' E 030°44'0 0.0
2017-Oct-13 14:55N 46°30' E 030°44'0 0.0
2017-Oct-13 14:19N 46°30' E 030°44'0 0.0
2017-Oct-13 13:58N 46°30' E 030°44'0 0.0
2017-Oct-13 13:25N 46°30' E 030°44'0 0.0
2017-Oct-13 12:34N 46°30' E 030°44'0 0.0
2017-Oct-13 12:25N 46°30' E 030°44'0 0.0
2017-Oct-13 11:58N 46°30' E 030°44'0 0.0
2017-Oct-13 11:25N 46°30' E 030°44'0 0.0
2017-Oct-13 10:52N 46°30' E 030°44'0 0.0
2017-Oct-13 10:22N 46°30' E 030°44'0 0.0
2017-Oct-13 09:58N 46°30' E 030°44'0 0.0
2017-Oct-13 09:25N 46°30' E 030°44'0 0.0
2017-Oct-13 08:40N 46°30' E 030°44'0 0.0
2017-Oct-13 08:28N 46°30' E 030°44'0 0.0
2017-Oct-13 07:58N 46°30' E 030°44'0 0.0
2017-Oct-13 07:16N 46°30' E 030°44'0 0.0
2017-Oct-13 06:55N 46°30' E 030°44'0 0.0
2017-Oct-13 06:28N 46°30' E 030°44'0 0.0
2017-Oct-13 05:55N 46°30' E 030°44'0 0.0
2017-Oct-13 05:25N 46°30' E 030°44'0 0.0
2017-Oct-13 04:55N 46°30' E 030°44'0 0.0
2017-Oct-13 04:22N 46°30' E 030°44'0 0.0
2017-Oct-13 03:58N 46°30' E 030°44'0 0.0
2017-Oct-13 03:28N 46°30' E 030°44'0 0.0
2017-Oct-13 02:58N 46°30' E 030°44'0 0.0
2017-Oct-13 02:28N 46°30' E 030°44'0 0.0
2017-Oct-13 01:49N 46°30' E 030°44'0 0.0
2017-Oct-13 01:28N 46°30' E 030°44'  
Track history (hours):
 
Tides and Currents Weather Stations Pressure Air Temp Water Temp Dewpoint Dewpoint Depression Visibility Wind Speed Wind Dir Waves Ship Positions

San Benjamino

Last reported at 2017-Oct-23 01:10 UTC. Time now 2017-Nov-19 01:24 UTC.
Position N 37°15' E 025°52'.
Warning: this ship's position is 27 days out of date.

Length 190 m; draft 12.7 m.

Type: Cargo ship. MMSI: 269095000.

Date/timePositionNaut miles runAvg speedWind from/ knotsBaromVisibWave heightAir tempDewpointWater temp
2017-Oct-23 01:10N 37°15' E 025°52'213.5
2017-Oct-23 01:00N 37°17' E 025°51'713.8
2017-Oct-23 00:30N 37°24' E 025°49'713.4
2017-Oct-22 23:59N 37°31' E 025°46'613.3
2017-Oct-22 23:30N 37°37' E 025°44'713.3
2017-Oct-22 23:00N 37°43' E 025°41'713.1
2017-Oct-22 22:30N 37°49' E 025°39'11412.3
2017-Oct-22 13:12N 39°44' E 025°40'413.7
2017-Oct-22 12:53N 39°47' E 025°44'513.5
2017-Oct-22 12:30N 39°51' E 025°48'713.4
2017-Oct-22 12:00N 39°56' E 025°54'13311.9
2017-Oct-22 00:46N 40°52' E 028°33'311.8
2017-Oct-22 00:30N 40°53' E 028°37'15 2.8
2017-Oct-21 19:17N 40°57' E 028°55'0 0.0
2017-Oct-21 18:59N 40°57' E 028°55'0 0.1
2017-Oct-21 17:44N 40°57' E 028°55'0 1.4
2017-Oct-21 17:24N 40°57' E 028°56'2 3.3
2017-Oct-21 16:56N 40°58' E 028°57'26 1.8
2017-Oct-21 02:47N 41°23' E 029°07'0 0.1
2017-Oct-21 02:30N 41°23' E 029°07'0 0.1
2017-Oct-21 02:00N 41°23' E 029°07'0 0.1
2017-Oct-21 01:30N 41°23' E 029°07'0 0.1
2017-Oct-21 01:00N 41°23' E 029°07'0 0.1
2017-Oct-21 00:30N 41°23' E 029°07'0 0.1
2017-Oct-21 00:00N 41°23' E 029°07'0 0.1
2017-Oct-20 23:31N 41°23' E 029°07'0 0.1
2017-Oct-20 21:01N 41°23' E 029°07'0 0.2
2017-Oct-20 20:40N 41°23' E 029°07'0 0.2
2017-Oct-20 20:29N 41°23' E 029°07'0 0.2
2017-Oct-20 20:00N 41°23' E 029°07'0 0.2
2017-Oct-20 19:18N 41°23' E 029°07'0 0.2
2017-Oct-20 19:00N 41°23' E 029°07'0 0.2
2017-Oct-20 18:30N 41°22' E 029°07'0 0.2
2017-Oct-20 18:00N 41°22' E 029°07'0 0.3
2017-Oct-20 17:30N 41°22' E 029°08'0 0.3
2017-Oct-20 17:00N 41°22' E 029°08'0 0.3
2017-Oct-20 16:30N 41°22' E 029°08'0 0.3
2017-Oct-20 16:00N 41°22' E 029°08'0 0.3
2017-Oct-20 15:30N 41°22' E 029°08'0 0.3
2017-Oct-20 15:00N 41°22' E 029°08'0 0.4
2017-Oct-20 14:01N 41°23' E 029°09'0 0.5
2017-Oct-20 13:30N 41°23' E 029°09'0 0.5
2017-Oct-20 13:00N 41°23' E 029°09'0 0.5
2017-Oct-20 12:31N 41°23' E 029°09'0 0.5
2017-Oct-20 12:00N 41°24' E 029°09'0 0.5
2017-Oct-20 11:31N 41°24' E 029°08'0 0.5
2017-Oct-20 11:00N 41°24' E 029°08'0 0.4
2017-Oct-20 10:30N 41°24' E 029°08'0 0.3
2017-Oct-20 10:01N 41°24' E 029°08'0 0.3
2017-Oct-20 09:30N 41°24' E 029°08'0 0.3
2017-Oct-20 09:00N 41°25' E 029°08'0 0.3
2017-Oct-20 08:30N 41°25' E 029°08'0 0.3
2017-Oct-20 08:00N 41°25' E 029°08'0 0.2
2017-Oct-20 07:30N 41°25' E 029°08'0 0.2
2017-Oct-20 07:00N 41°25' E 029°07'0 0.3
2017-Oct-20 06:30N 41°25' E 029°07'0 0.3
2017-Oct-20 05:59N 41°25' E 029°07'0 0.4
2017-Oct-20 05:30N 41°25' E 029°07'0 0.5
2017-Oct-20 05:00N 41°26' E 029°07'0 0.6
2017-Oct-20 04:31N 41°26' E 029°07'0 0.5
2017-Oct-20 04:00N 41°26' E 029°06'1 1.0
2017-Oct-20 03:30N 41°26' E 029°07'3 6.0
2017-Oct-20 03:00N 41°28' E 029°10'612.3
2017-Oct-20 02:30N 41°34' E 029°13'713.9
2017-Oct-20 02:00N 41°40' E 029°16'713.9
2017-Oct-20 01:30N 41°47' E 029°18'713.9
2017-Oct-20 01:00N 41°53' E 029°21'714.1
2017-Oct-20 00:30N 42°00' E 029°24'714.0
2017-Oct-20 00:00N 42°07' E 029°27'713.9
2017-Oct-19 23:30N 42°14' E 029°29'713.7
2017-Oct-19 23:00N 42°20' E 029°32'713.7
2017-Oct-19 22:30N 42°27' E 029°35'713.7
2017-Oct-19 22:00N 42°33' E 029°37'713.9
2017-Oct-19 21:30N 42°40' E 029°38'713.7
2017-Oct-19 21:00N 42°47' E 029°41'713.7
2017-Oct-19 20:30N 42°53' E 029°44'713.6
2017-Oct-19 20:00N 42°60' E 029°47'713.5
2017-Oct-19 19:30N 43°06' E 029°50'713.7
2017-Oct-19 18:59N 43°13' E 029°53'813.9
2017-Oct-19 18:26N 43°20' E 029°56'614.0
2017-Oct-19 18:00N 43°26' E 029°59'714.1
2017-Oct-19 17:30N 43°33' E 030°01'714.0
2017-Oct-19 17:00N 43°40' E 030°04'714.0
2017-Oct-19 16:30N 43°46' E 030°07'714.0
2017-Oct-19 16:00N 43°53' E 030°10'714.0
2017-Oct-19 15:30N 43°60' E 030°12'713.9
2017-Oct-19 15:00N 44°06' E 030°15'713.8
2017-Oct-19 14:30N 44°13' E 030°18'713.7
2017-Oct-19 14:00N 44°20' E 030°21'713.7
2017-Oct-19 13:30N 44°26' E 030°24'713.7
2017-Oct-19 13:00N 44°33' E 030°26'713.6
2017-Oct-19 12:30N 44°39' E 030°29'713.7
2017-Oct-19 12:00N 44°46' E 030°32'713.4
2017-Oct-19 11:30N 44°52' E 030°34'713.6
2017-Oct-19 11:00N 44°59' E 030°37'713.5
2017-Oct-19 10:30N 45°05' E 030°39'713.4
2017-Oct-19 10:00N 45°12' E 030°42'713.2
2017-Oct-19 09:30N 45°18' E 030°45'713.4
2017-Oct-19 09:00N 45°24' E 030°48'713.2
2017-Oct-19 08:30N 45°31' E 030°51'713.1
2017-Oct-19 08:00N 45°37' E 030°53'713.4
2017-Oct-19 07:30N 45°43' E 030°56'713.3
2017-Oct-19 07:00N 45°50' E 030°59'713.4
2017-Oct-19 06:30N 45°56' E 031°01'713.4
2017-Oct-19 06:00N 46°03' E 031°03'611.5
2017-Oct-19 05:30N 46°08' E 031°03'713.2
2017-Oct-19 05:00N 46°13' E 030°56'612.4
2017-Oct-19 04:30N 46°19' E 030°52'713.0
2017-Oct-19 04:00N 46°25' E 030°50'4 8.4
2017-Oct-19 03:30N 46°29' E 030°53'0 0.4
2017-Oct-19 02:56N 46°29' E 030°53'0 0.0
2017-Oct-19 02:29N 46°29' E 030°53'0 0.0
2017-Oct-19 01:53N 46°29' E 030°53'0 0.0
2017-Oct-19 01:29N 46°29' E 030°53'0 0.0
2017-Oct-19 00:59N 46°29' E 030°53'0 0.0
2017-Oct-19 00:29N 46°29' E 030°53'0 0.0
2017-Oct-18 23:59N 46°29' E 030°53'0 0.0
2017-Oct-18 23:23N 46°29' E 030°53'0 0.0
2017-Oct-18 22:59N 46°29' E 030°53'0 0.0
2017-Oct-18 21:41N 46°29' E 030°53'0 0.0
2017-Oct-18 21:29N 46°29' E 030°53'0 0.0
2017-Oct-18 20:59N 46°29' E 030°53'0 0.0
2017-Oct-18 19:53N 46°29' E 030°53'0 0.0
2017-Oct-18 19:11N 46°29' E 030°53'0 0.0
2017-Oct-18 18:35N 46°29' E 030°53'0 0.0
2017-Oct-18 18:29N 46°29' E 030°53'0 0.0
2017-Oct-18 17:35N 46°29' E 030°53'0 0.1
2017-Oct-18 17:29N 46°29' E 030°53'0 0.0
2017-Oct-18 16:56N 46°29' E 030°53'0 0.0
2017-Oct-18 16:23N 46°29' E 030°53'0 0.0
2017-Oct-18 15:50N 46°29' E 030°53'0 0.0
2017-Oct-18 15:23N 46°29' E 030°53'0 0.0
2017-Oct-18 14:59N 46°29' E 030°53'0 0.0
2017-Oct-18 13:50N 46°29' E 030°53'0 0.0
2017-Oct-18 13:23N 46°29' E 030°53'0 0.0
2017-Oct-18 12:56N 46°29' E 030°53'0 0.0
2017-Oct-18 12:29N 46°29' E 030°53'0 0.0
2017-Oct-18 11:56N 46°29' E 030°53'0 0.0
2017-Oct-18 10:50N 46°29' E 030°53'0 0.0
2017-Oct-18 10:11N 46°29' E 030°53'0 0.0
2017-Oct-18 09:56N 46°29' E 030°53'0 0.0
2017-Oct-18 09:17N 46°29' E 030°53'0 0.0
2017-Oct-18 08:59N 46°29' E 030°53'0 0.0
2017-Oct-18 08:26N 46°29' E 030°53'0 0.0
2017-Oct-18 07:53N 46°29' E 030°53'0 0.0
2017-Oct-18 07:14N 46°29' E 030°53'0 0.0
2017-Oct-18 06:56N 46°29' E 030°53'0 0.0
2017-Oct-18 06:29N 46°29' E 030°53'0 0.0
2017-Oct-18 05:50N 46°29' E 030°53'0 0.0
2017-Oct-18 04:44N 46°29' E 030°53'0 0.0
2017-Oct-18 04:11N 46°29' E 030°53'0 0.1
2017-Oct-18 03:59N 46°29' E 030°53'0 0.1
2017-Oct-18 03:26N 46°29' E 030°53'0 0.0
2017-Oct-18 02:56N 46°29' E 030°53'0 0.0
2017-Oct-18 02:29N 46°29' E 030°53'0 0.0
2017-Oct-18 01:59N 46°29' E 030°53'0 0.0
2017-Oct-18 01:17N 46°29' E 030°53'0 0.0
2017-Oct-18 00:26N 46°29' E 030°53'0 0.0
2017-Oct-17 23:56N 46°29' E 030°53'0 0.0
2017-Oct-17 23:29N 46°29' E 030°53'0 0.0
2017-Oct-17 22:32N 46°29' E 030°53'0 0.0
2017-Oct-17 22:17N 46°29' E 030°53'0 0.0
2017-Oct-17 21:50N 46°29' E 030°53'0 0.0
2017-Oct-17 21:26N 46°29' E 030°53'0 0.2
2017-Oct-17 20:56N 46°29' E 030°53'0 0.2
2017-Oct-17 20:29N 46°29' E 030°53'0 0.1
2017-Oct-17 19:41N 46°29' E 030°53'0 0.1
2017-Oct-17 19:23N 46°29' E 030°53'0 0.1
2017-Oct-17 18:47N 46°29' E 030°53'0 0.0
2017-Oct-17 18:29N 46°29' E 030°53'0 0.0
2017-Oct-17 17:59N 46°29' E 030°53'0 0.0
2017-Oct-17 17:26N 46°29' E 030°53'0 0.0
2017-Oct-17 15:44N 46°29' E 030°53'0 0.0
2017-Oct-17 15:11N 46°29' E 030°53'0 0.0
2017-Oct-17 14:53N 46°29' E 030°53'0 0.0
2017-Oct-17 14:26N 46°29' E 030°53'0 0.0
2017-Oct-17 13:56N 46°29' E 030°53'0 0.1
2017-Oct-17 13:26N 46°29' E 030°53'0 0.0
2017-Oct-17 12:59N 46°29' E 030°53'0 0.0
2017-Oct-17 12:29N 46°29' E 030°53'0 0.0
2017-Oct-17 11:44N 46°29' E 030°53'0 0.0
2017-Oct-17 11:26N 46°29' E 030°53'0 0.0
2017-Oct-17 10:35N 46°29' E 030°53'0 0.1
2017-Oct-17 10:29N 46°29' E 030°53'0 0.0
2017-Oct-17 09:56N 46°29' E 030°53'0 0.0
2017-Oct-17 09:17N 46°29' E 030°53'0 0.0
2017-Oct-17 08:56N 46°29' E 030°53'0 0.0
2017-Oct-17 08:23N 46°29' E 030°53'0 0.1
2017-Oct-17 07:56N 46°29' E 030°53'0 0.0
2017-Oct-17 07:29N 46°29' E 030°53'0 0.1
2017-Oct-17 06:59N 46°29' E 030°53'0 0.0
2017-Oct-17 06:29N 46°29' E 030°53'0 0.0
2017-Oct-17 05:53N 46°29' E 030°53'0 0.0
2017-Oct-17 05:29N 46°29' E 030°53'0 0.0
2017-Oct-17 04:59N 46°29' E 030°53'0 0.0
2017-Oct-17 04:26N 46°29' E 030°53'0 0.0
2017-Oct-17 03:56N 46°29' E 030°53'0 0.0
2017-Oct-17 03:14N 46°29' E 030°53'0 0.0
2017-Oct-17 02:53N 46°29' E 030°53'0 0.0
2017-Oct-17 02:29N 46°29' E 030°53'0 0.0
2017-Oct-17 01:53N 46°29' E 030°53'0 0.0
2017-Oct-17 01:29N 46°29' E 030°53'0 0.0
2017-Oct-17 00:47N 46°29' E 030°53'0 0.0
2017-Oct-17 00:05N 46°29' E 030°53'0 0.0
2017-Oct-16 23:35N 46°29' E 030°53'0 0.1
2017-Oct-16 23:29N 46°29' E 030°53'0 0.0
2017-Oct-16 22:59N 46°29' E 030°53'0 0.0
2017-Oct-16 22:23N 46°29' E 030°53'0 0.0
2017-Oct-16 21:53N 46°29' E 030°53'0 0.0
2017-Oct-16 21:29N 46°29' E 030°53'0 0.0
2017-Oct-16 20:17N 46°29' E 030°53'0 0.0
2017-Oct-16 19:47N 46°29' E 030°53'0 0.0
2017-Oct-16 19:20N 46°29' E 030°53'0 0.0
2017-Oct-16 18:59N 46°29' E 030°53'0 0.0
2017-Oct-16 18:29N 46°29' E 030°53'0 0.0
2017-Oct-16 17:50N 46°29' E 030°53'0 0.0
2017-Oct-16 16:50N 46°29' E 030°53'0 0.0
2017-Oct-16 16:23N 46°29' E 030°53'0 0.0
2017-Oct-16 15:53N 46°29' E 030°53'0 0.0
2017-Oct-16 15:26N 46°29' E 030°53'0 0.0
2017-Oct-16 14:32N 46°29' E 030°53'0 0.0
2017-Oct-16 13:47N 46°29' E 030°53'0 0.1
2017-Oct-16 13:20N 46°29' E 030°53'0 0.0
2017-Oct-16 12:56N 46°29' E 030°53'0 0.0
2017-Oct-16 12:23N 46°29' E 030°53'0 0.0
2017-Oct-16 11:56N 46°29' E 030°53'0 0.0
2017-Oct-16 11:29N 46°29' E 030°53'0 0.0
2017-Oct-16 10:53N 46°29' E 030°53'0 0.0
2017-Oct-16 10:29N 46°29' E 030°53'0 0.0
2017-Oct-16 09:56N 46°29' E 030°53'0 0.0
2017-Oct-16 09:26N 46°29' E 030°53'0 0.3
2017-Oct-16 08:56N 46°29' E 030°53'1 1.9
2017-Oct-16 08:30N 46°29' E 030°52'3 5.8
2017-Oct-16 08:00N 46°30' E 030°48'3 5.2
2017-Oct-16 07:30N 46°30' E 030°44'0 0.3
2017-Oct-16 06:58N 46°30' E 030°44'0 0.0
2017-Oct-16 06:25N 46°30' E 030°44'0 0.0
2017-Oct-16 05:46N 46°30' E 030°44'0 0.0
2017-Oct-16 05:28N 46°30' E 030°44'0 0.0
2017-Oct-16 04:49N 46°30' E 030°44'0 0.0
2017-Oct-16 04:28N 46°30' E 030°44'0 0.0
2017-Oct-16 03:58N 46°30' E 030°44'0 0.0
2017-Oct-16 03:28N 46°30' E 030°44'0 0.0
2017-Oct-16 02:52N 46°30' E 030°44'0 0.0
2017-Oct-16 02:28N 46°30' E 030°44'0 0.0
2017-Oct-16 01:58N 46°30' E 030°44'0 0.0
2017-Oct-16 01:28N 46°30' E 030°44'0 0.0
2017-Oct-16 00:52N 46°30' E 030°44'0 0.0
2017-Oct-16 00:10N 46°30' E 030°44'0 0.0
2017-Oct-15 23:58N 46°30' E 030°44'0 0.0
2017-Oct-15 23:16N 46°30' E 030°44'0 0.0
2017-Oct-15 22:58N 46°30' E 030°44'0 0.0
2017-Oct-15 22:19N 46°30' E 030°44'0 0.0
2017-Oct-15 21:52N 46°30' E 030°44'0 0.0
2017-Oct-15 21:28N 46°30' E 030°44'0 0.0
2017-Oct-15 20:58N 46°30' E 030°44'0 0.0
2017-Oct-15 20:28N 46°30' E 030°44'0 0.0
2017-Oct-15 19:58N 46°30' E 030°44'0 0.0
2017-Oct-15 19:22N 46°30' E 030°44'0 0.0
2017-Oct-15 18:58N 46°30' E 030°44'0 0.0
2017-Oct-15 18:28N 46°30' E 030°44'0 0.0
2017-Oct-15 17:58N 46°30' E 030°44'0 0.0
2017-Oct-15 17:28N 46°30' E 030°44'0 0.0
2017-Oct-15 16:55N 46°30' E 030°44'0 0.0
2017-Oct-15 16:28N 46°30' E 030°44'0 0.0
2017-Oct-15 15:25N 46°30' E 030°44'0 0.0
2017-Oct-15 14:58N 46°30' E 030°44'0 0.0
2017-Oct-15 13:28N 46°30' E 030°44'0 0.0
2017-Oct-15 12:55N 46°30' E 030°44'0 0.0
2017-Oct-15 12:25N 46°30' E 030°44'0 0.0
2017-Oct-15 11:55N 46°30' E 030°44'0 0.0
2017-Oct-15 11:28N 46°30' E 030°44'0 0.0
2017-Oct-15 10:58N 46°30' E 030°44'0 0.0
2017-Oct-15 10:28N 46°30' E 030°44'0 0.0
2017-Oct-15 09:58N 46°30' E 030°44'0 0.0
2017-Oct-15 09:16N 46°30' E 030°44'0 0.0
2017-Oct-15 08:52N 46°30' E 030°44'0 0.0
2017-Oct-15 08:28N 46°30' E 030°44'0 0.0
2017-Oct-15 07:58N 46°30' E 030°44'0 0.0
2017-Oct-15 07:22N 46°30' E 030°44'0 0.0
2017-Oct-15 06:58N 46°30' E 030°44'0 0.0
2017-Oct-15 06:28N 46°30' E 030°44'0 0.0
2017-Oct-15 05:55N 46°30' E 030°44'0 0.0
2017-Oct-15 05:25N 46°30' E 030°44'0 0.0
2017-Oct-15 04:52N 46°30' E 030°44'0 0.0
2017-Oct-15 04:19N 46°30' E 030°44'0 0.0
2017-Oct-15 03:58N 46°30' E 030°44'0 0.0
2017-Oct-15 03:25N 46°30' E 030°44'0 0.0
2017-Oct-15 02:58N 46°30' E 030°44'0 0.0
2017-Oct-15 02:28N 46°30' E 030°44'0 0.0
2017-Oct-15 01:58N 46°30' E 030°44'0 0.0
2017-Oct-15 01:28N 46°30' E 030°44'0 0.0
2017-Oct-15 00:58N 46°30' E 030°44'0 0.0
2017-Oct-15 00:28N 46°30' E 030°44'0 0.0
2017-Oct-14 23:55N 46°30' E 030°44'0 0.0
2017-Oct-14 23:28N 46°30' E 030°44'0 0.0
2017-Oct-14 22:58N 46°30' E 030°44'0 0.0
2017-Oct-14 22:28N 46°30' E 030°44'0 0.0
2017-Oct-14 21:58N 46°30' E 030°44'0 0.0
2017-Oct-14 21:25N 46°30' E 030°44'0 0.0
2017-Oct-14 20:52N 46°30' E 030°44'0 0.0
2017-Oct-14 20:28N 46°30' E 030°44'0 0.0
2017-Oct-14 19:52N 46°30' E 030°44'0 0.0
2017-Oct-14 19:16N 46°30' E 030°44'0 0.0
2017-Oct-14 18:58N 46°30' E 030°44'0 0.0
2017-Oct-14 18:22N 46°30' E 030°44'0 0.0
2017-Oct-14 17:55N 46°30' E 030°44'0 0.0
2017-Oct-14 17:25N 46°30' E 030°44'0 0.0
2017-Oct-14 16:55N 46°30' E 030°44'0 0.0
2017-Oct-14 16:25N 46°30' E 030°44'0 0.0
2017-Oct-14 15:58N 46°30' E 030°44'0 0.0
2017-Oct-14 15:28N 46°30' E 030°44'0 0.0
2017-Oct-14 14:58N 46°30' E 030°44'0 0.0
2017-Oct-14 14:25N 46°30' E 030°44'0 0.0
2017-Oct-14 13:58N 46°30' E 030°44'0 0.0
2017-Oct-14 13:22N 46°30' E 030°44'0 0.0
2017-Oct-14 12:58N 46°30' E 030°44'0 0.0
2017-Oct-14 12:25N 46°30' E 030°44'0 0.0
2017-Oct-14 11:55N 46°30' E 030°44'0 0.0
2017-Oct-14 11:25N 46°30' E 030°44'0 0.0
2017-Oct-14 10:58N 46°30' E 030°44'0 0.0
2017-Oct-14 10:28N 46°30' E 030°44'0 0.0
2017-Oct-14 09:49N 46°30' E 030°44'0 0.0
2017-Oct-14 09:25N 46°30' E 030°44'0 0.0
2017-Oct-14 08:52N 46°30' E 030°44'0 0.0
2017-Oct-14 08:25N 46°30' E 030°44'0 0.0
2017-Oct-14 07:58N 46°30' E 030°44'0 0.0
2017-Oct-14 07:25N 46°30' E 030°44'0 0.0
2017-Oct-14 06:58N 46°30' E 030°44'0 0.0
2017-Oct-14 06:28N 46°30' E 030°44'0 0.0
2017-Oct-14 05:58N 46°30' E 030°44'0 0.0
2017-Oct-14 05:28N 46°30' E 030°44'0 0.0
2017-Oct-14 04:58N 46°30' E 030°44'0 0.0
2017-Oct-14 03:58N 46°30' E 030°44'0 0.0
2017-Oct-14 03:25N 46°30' E 030°44'0 0.0
2017-Oct-14 02:52N 46°30' E 030°44'0 0.0
2017-Oct-14 02:28N 46°30' E 030°44'0 0.0
2017-Oct-14 01:58N 46°30' E 030°44'0 0.0
2017-Oct-14 01:28N 46°30' E 030°44'0 0.0
2017-Oct-14 00:58N 46°30' E 030°44'0 0.0
2017-Oct-14 00:28N 46°30' E 030°44'0 0.0
2017-Oct-13 23:55N 46°30' E 030°44'0 0.0
2017-Oct-13 23:19N 46°30' E 030°44'0 0.0
2017-Oct-13 22:58N 46°30' E 030°44'0 0.0
2017-Oct-13 22:25N 46°30' E 030°44'0 0.0
2017-Oct-13 21:58N 46°30' E 030°44'0 0.0
2017-Oct-13 21:28N 46°30' E 030°44'0 0.0
2017-Oct-13 20:58N 46°30' E 030°44'0 0.0
2017-Oct-13 20:28N 46°30' E 030°44'0 0.0
2017-Oct-13 19:55N 46°30' E 030°44'0 0.0
2017-Oct-13 19:28N 46°30' E 030°44'0 0.0
2017-Oct-13 18:55N 46°30' E 030°44'0 0.0
2017-Oct-13 18:25N 46°30' E 030°44'0 0.0
2017-Oct-13 17:58N 46°30' E 030°44'0 0.0
2017-Oct-13 17:28N 46°30' E 030°44'0 0.0
2017-Oct-13 16:55N 46°30' E 030°44'0 0.0
2017-Oct-13 16:16N 46°30' E 030°44'0 0.0
2017-Oct-13 15:55N 46°30' E 030°44'0 0.0
2017-Oct-13 15:28N 46°30' E 030°44'0 0.0
2017-Oct-13 14:55N 46°30' E 030°44'0 0.0
2017-Oct-13 14:19N 46°30' E 030°44'0 0.0
2017-Oct-13 13:58N 46°30' E 030°44'0 0.0
2017-Oct-13 13:25N 46°30' E 030°44'0 0.0
2017-Oct-13 12:34N 46°30' E 030°44'0 0.0
2017-Oct-13 12:25N 46°30' E 030°44'0 0.0
2017-Oct-13 11:58N 46°30' E 030°44'0 0.0
2017-Oct-13 11:25N 46°30' E 030°44'0 0.0
2017-Oct-13 10:52N 46°30' E 030°44'0 0.0
2017-Oct-13 10:22N 46°30' E 030°44'0 0.0
2017-Oct-13 09:58N 46°30' E 030°44'0 0.0
2017-Oct-13 09:25N 46°30' E 030°44'0 0.0
2017-Oct-13 08:40N 46°30' E 030°44'0 0.0
2017-Oct-13 08:28N 46°30' E 030°44'0 0.0
2017-Oct-13 07:58N 46°30' E 030°44'0 0.0
2017-Oct-13 07:16N 46°30' E 030°44'0 0.0
2017-Oct-13 06:55N 46°30' E 030°44'0 0.0
2017-Oct-13 06:28N 46°30' E 030°44'0 0.0
2017-Oct-13 05:55N 46°30' E 030°44'0 0.0
2017-Oct-13 05:25N 46°30' E 030°44'0 0.0
2017-Oct-13 04:55N 46°30' E 030°44'0 0.0
2017-Oct-13 04:22N 46°30' E 030°44'0 0.0
2017-Oct-13 03:58N 46°30' E 030°44'0 0.0
2017-Oct-13 03:28N 46°30' E 030°44'0 0.0
2017-Oct-13 02:58N 46°30' E 030°44'0 0.0
2017-Oct-13 02:28N 46°30' E 030°44'0 0.0
2017-Oct-13 01:49N 46°30' E 030°44'0 0.0
2017-Oct-13 01:28N 46°30' E 030°44'  

Dump ship's entire track history